sensor_id;sensor_type;location;lat;lon;timestamp;P1;durP1;ratioP1;P2;durP2;ratioP2
37855;SDS011;23694;43.274;26.924;2024-03-23T00:54:51;9.90;;;7.60;;
37855;SDS011;23694;43.274;26.924;2024-03-23T00:57:17;10.47;;;7.60;;
37855;SDS011;23694;43.274;26.924;2024-03-23T00:59:43;12.03;;;7.97;;
37855;SDS011;23694;43.274;26.924;2024-03-23T01:02:09;10.77;;;7.77;;
37855;SDS011;23694;43.274;26.924;2024-03-23T01:04:35;11.27;;;7.93;;
37855;SDS011;23694;43.274;26.924;2024-03-23T01:07:02;12.33;;;9.10;;
37855;SDS011;23694;43.274;26.924;2024-03-23T01:09:29;12.97;;;8.73;;
37855;SDS011;23694;43.274;26.924;2024-03-23T01:11:55;10.60;;;8.47;;
37855;SDS011;23694;43.274;26.924;2024-03-23T01:14:21;10.13;;;7.37;;
37855;SDS011;23694;43.274;26.924;2024-03-23T01:16:48;12.97;;;9.73;;
37855;SDS011;23694;43.274;26.924;2024-03-23T01:19:14;16.53;;;12.00;;
37855;SDS011;23694;43.274;26.924;2024-03-23T01:21:40;17.80;;;12.50;;
37855;SDS011;23694;43.274;26.924;2024-03-23T01:24:06;17.30;;;11.27;;
37855;SDS011;23694;43.274;26.924;2024-03-23T01:26:35;15.67;;;10.43;;
37855;SDS011;23694;43.274;26.924;2024-03-23T01:29:02;12.00;;;9.30;;
37855;SDS011;23694;43.274;26.924;2024-03-23T01:31:29;12.90;;;9.27;;
37855;SDS011;23694;43.274;26.924;2024-03-23T01:33:56;11.83;;;9.03;;
37855;SDS011;23694;43.274;26.924;2024-03-23T01:36:22;11.73;;;7.87;;
37855;SDS011;23694;43.274;26.924;2024-03-23T01:38:48;11.43;;;8.80;;
37855;SDS011;23694;43.274;26.924;2024-03-23T01:41:15;11.87;;;8.47;;
37855;SDS011;23694;43.274;26.924;2024-03-23T01:43:41;9.90;;;8.40;;
37855;SDS011;23694;43.274;26.924;2024-03-23T01:46:07;10.90;;;8.23;;
37855;SDS011;23694;43.274;26.924;2024-03-23T01:48:33;12.87;;;8.37;;
37855;SDS011;23694;43.274;26.924;2024-03-23T01:51:00;11.83;;;8.10;;
37855;SDS011;23694;43.274;26.924;2024-03-23T01:53:29;12.77;;;8.97;;
37855;SDS011;23694;43.274;26.924;2024-03-23T01:55:56;11.37;;;8.30;;
37855;SDS011;23694;43.274;26.924;2024-03-23T01:58:24;12.93;;;8.47;;
37855;SDS011;23694;43.274;26.924;2024-03-23T02:00:51;10.73;;;7.53;;
37855;SDS011;23694;43.274;26.924;2024-03-23T02:03:24;10.80;;;7.87;;
37855;SDS011;23694;43.274;26.924;2024-03-23T02:05:51;10.10;;;7.53;;
37855;SDS011;23694;43.274;26.924;2024-03-23T02:08:19;12.03;;;8.23;;
37855;SDS011;23694;43.274;26.924;2024-03-23T02:10:47;12.43;;;8.10;;
37855;SDS011;23694;43.274;26.924;2024-03-23T02:13:15;11.77;;;7.80;;
37855;SDS011;23694;43.274;26.924;2024-03-23T02:15:41;11.23;;;7.73;;
37855;SDS011;23694;43.274;26.924;2024-03-23T02:18:08;11.27;;;7.80;;
37855;SDS011;23694;43.274;26.924;2024-03-23T02:20:35;12.50;;;8.53;;
37855;SDS011;23694;43.274;26.924;2024-03-23T02:23:02;15.13;;;9.50;;
37855;SDS011;23694;43.274;26.924;2024-03-23T02:25:28;12.93;;;8.40;;
37855;SDS011;23694;43.274;26.924;2024-03-23T02:27:54;12.67;;;9.07;;
37855;SDS011;23694;43.274;26.924;2024-03-23T02:30:21;11.57;;;9.00;;
37855;SDS011;23694;43.274;26.924;2024-03-23T02:32:47;13.57;;;8.47;;
37855;SDS011;23694;43.274;26.924;2024-03-23T02:35:13;11.40;;;8.03;;
37855;SDS011;23694;43.274;26.924;2024-03-23T02:37:39;12.30;;;8.10;;
37855;SDS011;23694;43.274;26.924;2024-03-23T02:40:05;11.53;;;8.90;;
37855;SDS011;23694;43.274;26.924;2024-03-23T02:42:32;13.03;;;9.47;;
37855;SDS011;23694;43.274;26.924;2024-03-23T02:44:58;21.07;;;13.50;;
37855;SDS011;23694;43.274;26.924;2024-03-23T02:47:25;21.60;;;15.07;;
37855;SDS011;23694;43.274;26.924;2024-03-23T02:49:51;24.17;;;15.90;;
37855;SDS011;23694;43.274;26.924;2024-03-23T02:52:17;19.63;;;13.10;;
37855;SDS011;23694;43.274;26.924;2024-03-23T02:54:43;19.23;;;13.20;;
37855;SDS011;23694;43.274;26.924;2024-03-23T02:57:11;22.13;;;13.97;;
37855;SDS011;23694;43.274;26.924;2024-03-23T02:59:37;16.63;;;12.43;;
37855;SDS011;23694;43.274;26.924;2024-03-23T03:02:03;19.70;;;12.73;;
37855;SDS011;23694;43.274;26.924;2024-03-23T03:04:30;18.67;;;12.07;;
37855;SDS011;23694;43.274;26.924;2024-03-23T03:06:57;18.37;;;13.07;;
37855;SDS011;23694;43.274;26.924;2024-03-23T03:09:23;22.23;;;13.00;;
37855;SDS011;23694;43.274;26.924;2024-03-23T03:11:49;16.73;;;10.83;;
37855;SDS011;23694;43.274;26.924;2024-03-23T03:14:15;19.93;;;11.10;;
37855;SDS011;23694;43.274;26.924;2024-03-23T03:16:41;26.17;;;16.70;;
37855;SDS011;23694;43.274;26.924;2024-03-23T03:19:07;30.03;;;17.80;;
37855;SDS011;23694;43.274;26.924;2024-03-23T03:21:33;27.13;;;16.80;;
37855;SDS011;23694;43.274;26.924;2024-03-23T03:23:59;29.07;;;17.17;;
37855;SDS011;23694;43.274;26.924;2024-03-23T03:26:26;24.33;;;16.20;;
37855;SDS011;23694;43.274;26.924;2024-03-23T03:28:52;24.63;;;14.70;;
37855;SDS011;23694;43.274;26.924;2024-03-23T03:31:18;25.27;;;15.67;;
37855;SDS011;23694;43.274;26.924;2024-03-23T03:33:44;21.53;;;14.63;;
37855;SDS011;23694;43.274;26.924;2024-03-23T03:36:10;23.33;;;14.73;;
37855;SDS011;23694;43.274;26.924;2024-03-23T03:38:37;25.23;;;17.07;;
37855;SDS011;23694;43.274;26.924;2024-03-23T03:41:04;26.33;;;17.83;;
37855;SDS011;23694;43.274;26.924;2024-03-23T03:43:32;24.70;;;17.37;;
37855;SDS011;23694;43.274;26.924;2024-03-23T03:45:59;29.30;;;18.60;;
37855;SDS011;23694;43.274;26.924;2024-03-23T03:48:26;32.10;;;20.10;;
37855;SDS011;23694;43.274;26.924;2024-03-23T03:50:53;31.10;;;20.53;;
37855;SDS011;23694;43.274;26.924;2024-03-23T03:53:19;28.57;;;19.80;;
37855;SDS011;23694;43.274;26.924;2024-03-23T03:55:45;26.23;;;18.00;;
37855;SDS011;23694;43.274;26.924;2024-03-23T03:58:12;29.27;;;18.83;;
37855;SDS011;23694;43.274;26.924;2024-03-23T04:00:38;27.37;;;17.27;;
37855;SDS011;23694;43.274;26.924;2024-03-23T04:03:04;25.20;;;18.00;;
37855;SDS011;23694;43.274;26.924;2024-03-23T04:05:30;25.47;;;16.73;;
37855;SDS011;23694;43.274;26.924;2024-03-23T04:07:56;23.73;;;16.10;;
37855;SDS011;23694;43.274;26.924;2024-03-23T04:10:22;23.57;;;15.30;;
37855;SDS011;23694;43.274;26.924;2024-03-23T04:12:48;22.50;;;13.90;;
37855;SDS011;23694;43.274;26.924;2024-03-23T04:15:15;19.23;;;13.83;;
37855;SDS011;23694;43.274;26.924;2024-03-23T04:17:41;21.73;;;15.20;;
37855;SDS011;23694;43.274;26.924;2024-03-23T04:20:08;23.67;;;14.17;;
37855;SDS011;23694;43.274;26.924;2024-03-23T04:22:37;17.83;;;12.90;;
37855;SDS011;23694;43.274;26.924;2024-03-23T04:25:03;18.70;;;13.20;;
37855;SDS011;23694;43.274;26.924;2024-03-23T04:27:32;16.90;;;12.00;;
37855;SDS011;23694;43.274;26.924;2024-03-23T04:29:59;22.33;;;16.53;;
37855;SDS011;23694;43.274;26.924;2024-03-23T04:32:29;16.83;;;11.40;;
37855;SDS011;23694;43.274;26.924;2024-03-23T04:34:55;46.47;;;33.33;;
37855;SDS011;23694;43.274;26.924;2024-03-23T04:37:21;28.33;;;21.37;;
37855;SDS011;23694;43.274;26.924;2024-03-23T04:39:48;12.10;;;8.93;;
37855;SDS011;23694;43.274;26.924;2024-03-23T04:42:14;11.47;;;8.37;;
37855;SDS011;23694;43.274;26.924;2024-03-23T04:44:41;13.53;;;8.40;;
37855;SDS011;23694;43.274;26.924;2024-03-23T04:47:08;10.10;;;7.13;;
37855;SDS011;23694;43.274;26.924;2024-03-23T04:49:34;9.70;;;6.77;;
37855;SDS011;23694;43.274;26.924;2024-03-23T04:52:06;10.27;;;6.47;;
37855;SDS011;23694;43.274;26.924;2024-03-23T04:54:32;10.83;;;6.70;;
37855;SDS011;23694;43.274;26.924;2024-03-23T04:56:59;14.07;;;8.07;;
37855;SDS011;23694;43.274;26.924;2024-03-23T04:59:25;16.63;;;8.63;;
37855;SDS011;23694;43.274;26.924;2024-03-23T05:01:51;22.70;;;12.00;;
37855;SDS011;23694;43.274;26.924;2024-03-23T05:04:18;21.50;;;14.40;;
37855;SDS011;23694;43.274;26.924;2024-03-23T05:06:44;25.90;;;15.93;;
37855;SDS011;23694;43.274;26.924;2024-03-23T05:09:10;28.60;;;18.63;;
37855;SDS011;23694;43.274;26.924;2024-03-23T05:11:40;36.17;;;21.83;;
37855;SDS011;23694;43.274;26.924;2024-03-23T05:14:11;30.37;;;16.33;;
37855;SDS011;23694;43.274;26.924;2024-03-23T05:16:39;26.27;;;17.00;;
37855;SDS011;23694;43.274;26.924;2024-03-23T05:19:05;32.53;;;17.67;;
37855;SDS011;23694;43.274;26.924;2024-03-23T05:21:31;30.43;;;18.17;;
37855;SDS011;23694;43.274;26.924;2024-03-23T05:23:57;22.23;;;17.07;;
37855;SDS011;23694;43.274;26.924;2024-03-23T05:26:24;27.60;;;16.63;;
37855;SDS011;23694;43.274;26.924;2024-03-23T05:28:50;25.63;;;16.97;;
37855;SDS011;23694;43.274;26.924;2024-03-23T05:31:26;25.53;;;16.33;;
37855;SDS011;23694;43.274;26.924;2024-03-23T05:33:53;25.67;;;16.43;;
37855;SDS011;23694;43.274;26.924;2024-03-23T05:36:20;24.23;;;17.00;;
37855;SDS011;23694;43.274;26.924;2024-03-23T05:38:46;27.03;;;16.47;;
37855;SDS011;23694;43.274;26.924;2024-03-23T05:41:12;24.00;;;16.73;;
37855;SDS011;23694;43.274;26.924;2024-03-23T05:43:38;23.13;;;15.87;;
37855;SDS011;23694;43.274;26.924;2024-03-23T05:46:05;23.07;;;16.50;;
37855;SDS011;23694;43.274;26.924;2024-03-23T05:48:31;26.80;;;17.67;;
37855;SDS011;23694;43.274;26.924;2024-03-23T05:50:57;24.80;;;17.17;;
37855;SDS011;23694;43.274;26.924;2024-03-23T05:53:24;28.20;;;16.90;;
37855;SDS011;23694;43.274;26.924;2024-03-23T05:55:50;23.17;;;15.77;;
37855;SDS011;23694;43.274;26.924;2024-03-23T05:58:19;20.67;;;15.87;;
37855;SDS011;23694;43.274;26.924;2024-03-23T06:00:48;26.57;;;19.53;;
37855;SDS011;23694;43.274;26.924;2024-03-23T06:03:14;25.93;;;19.27;;
37855;SDS011;23694;43.274;26.924;2024-03-23T06:05:40;24.73;;;17.57;;
37855;SDS011;23694;43.274;26.924;2024-03-23T06:08:08;26.63;;;18.50;;
37855;SDS011;23694;43.274;26.924;2024-03-23T06:10:35;24.33;;;18.57;;
37855;SDS011;23694;43.274;26.924;2024-03-23T06:13:01;22.57;;;16.27;;
37855;SDS011;23694;43.274;26.924;2024-03-23T06:15:27;22.53;;;17.40;;
37855;SDS011;23694;43.274;26.924;2024-03-23T06:17:53;23.93;;;18.13;;
37855;SDS011;23694;43.274;26.924;2024-03-23T06:20:19;18.50;;;15.60;;
37855;SDS011;23694;43.274;26.924;2024-03-23T06:22:46;21.83;;;15.93;;
37855;SDS011;23694;43.274;26.924;2024-03-23T06:25:12;19.80;;;15.27;;
37855;SDS011;23694;43.274;26.924;2024-03-23T06:27:38;27.10;;;16.63;;
37855;SDS011;23694;43.274;26.924;2024-03-23T06:30:07;21.93;;;15.97;;
37855;SDS011;23694;43.274;26.924;2024-03-23T06:32:33;22.37;;;15.33;;
37855;SDS011;23694;43.274;26.924;2024-03-23T06:34:59;23.13;;;14.87;;
37855;SDS011;23694;43.274;26.924;2024-03-23T06:37:25;19.50;;;14.03;;
37855;SDS011;23694;43.274;26.924;2024-03-23T06:39:51;24.07;;;15.60;;
37855;SDS011;23694;43.274;26.924;2024-03-23T06:42:18;25.73;;;16.10;;
37855;SDS011;23694;43.274;26.924;2024-03-23T06:44:44;24.37;;;16.10;;
37855;SDS011;23694;43.274;26.924;2024-03-23T06:47:10;29.37;;;16.20;;
37855;SDS011;23694;43.274;26.924;2024-03-23T06:49:36;24.70;;;16.53;;
37855;SDS011;23694;43.274;26.924;2024-03-23T06:52:02;24.87;;;16.50;;
37855;SDS011;23694;43.274;26.924;2024-03-23T06:54:28;28.57;;;16.93;;
37855;SDS011;23694;43.274;26.924;2024-03-23T06:56:54;28.30;;;18.53;;
37855;SDS011;23694;43.274;26.924;2024-03-23T06:59:21;26.27;;;17.23;;
37855;SDS011;23694;43.274;26.924;2024-03-23T07:01:47;26.97;;;17.43;;
37855;SDS011;23694;43.274;26.924;2024-03-23T07:04:13;27.77;;;19.00;;
37855;SDS011;23694;43.274;26.924;2024-03-23T07:06:43;34.20;;;21.00;;
37855;SDS011;23694;43.274;26.924;2024-03-23T07:09:09;27.37;;;17.50;;
37855;SDS011;23694;43.274;26.924;2024-03-23T07:11:36;30.33;;;17.57;;
37855;SDS011;23694;43.274;26.924;2024-03-23T07:14:02;27.53;;;18.40;;
37855;SDS011;23694;43.274;26.924;2024-03-23T07:16:28;25.43;;;17.00;;
37855;SDS011;23694;43.274;26.924;2024-03-23T07:18:55;31.67;;;17.33;;
37855;SDS011;23694;43.274;26.924;2024-03-23T07:21:21;32.77;;;18.20;;
37855;SDS011;23694;43.274;26.924;2024-03-23T07:23:47;25.37;;;17.33;;
37855;SDS011;23694;43.274;26.924;2024-03-23T07:26:13;30.27;;;16.93;;
37855;SDS011;23694;43.274;26.924;2024-03-23T07:28:40;31.87;;;17.20;;
37855;SDS011;23694;43.274;26.924;2024-03-23T07:31:11;28.93;;;18.03;;
37855;SDS011;23694;43.274;26.924;2024-03-23T07:33:45;25.97;;;17.83;;
37855;SDS011;23694;43.274;26.924;2024-03-23T07:36:12;29.90;;;18.30;;
37855;SDS011;23694;43.274;26.924;2024-03-23T07:38:42;25.10;;;17.27;;
37855;SDS011;23694;43.274;26.924;2024-03-23T07:41:16;34.73;;;19.33;;
37855;SDS011;23694;43.274;26.924;2024-03-23T07:43:43;35.17;;;18.23;;
37855;SDS011;23694;43.274;26.924;2024-03-23T07:46:09;33.17;;;19.17;;
37855;SDS011;23694;43.274;26.924;2024-03-23T07:48:37;30.40;;;18.93;;
37855;SDS011;23694;43.274;26.924;2024-03-23T07:51:07;29.50;;;18.70;;
37855;SDS011;23694;43.274;26.924;2024-03-23T07:53:34;24.27;;;17.40;;
37855;SDS011;23694;43.274;26.924;2024-03-23T07:56:03;23.50;;;16.43;;
37855;SDS011;23694;43.274;26.924;2024-03-23T07:58:29;23.97;;;16.07;;
37855;SDS011;23694;43.274;26.924;2024-03-23T08:00:56;22.13;;;14.93;;
37855;SDS011;23694;43.274;26.924;2024-03-23T08:03:29;21.27;;;14.80;;
37855;SDS011;23694;43.274;26.924;2024-03-23T08:05:55;20.27;;;13.60;;
37855;SDS011;23694;43.274;26.924;2024-03-23T08:08:21;19.20;;;13.77;;
37855;SDS011;23694;43.274;26.924;2024-03-23T08:10:50;23.30;;;12.93;;
37855;SDS011;23694;43.274;26.924;2024-03-23T08:13:17;20.17;;;14.00;;
37855;SDS011;23694;43.274;26.924;2024-03-23T08:15:43;18.43;;;13.07;;
37855;SDS011;23694;43.274;26.924;2024-03-23T08:18:11;16.80;;;13.10;;
37855;SDS011;23694;43.274;26.924;2024-03-23T08:20:37;16.30;;;11.77;;
37855;SDS011;23694;43.274;26.924;2024-03-23T08:23:05;17.97;;;12.17;;
37855;SDS011;23694;43.274;26.924;2024-03-23T08:25:32;15.90;;;11.47;;
37855;SDS011;23694;43.274;26.924;2024-03-23T08:27:58;14.93;;;10.60;;
37855;SDS011;23694;43.274;26.924;2024-03-23T08:30:25;16.80;;;10.77;;
37855;SDS011;23694;43.274;26.924;2024-03-23T08:32:51;16.63;;;10.40;;
37855;SDS011;23694;43.274;26.924;2024-03-23T08:35:18;15.23;;;10.20;;
37855;SDS011;23694;43.274;26.924;2024-03-23T08:37:44;16.00;;;10.60;;
37855;SDS011;23694;43.274;26.924;2024-03-23T08:40:10;13.00;;;9.63;;
37855;SDS011;23694;43.274;26.924;2024-03-23T08:42:37;12.43;;;9.27;;
37855;SDS011;23694;43.274;26.924;2024-03-23T08:45:03;12.90;;;8.97;;
37855;SDS011;23694;43.274;26.924;2024-03-23T08:47:29;12.77;;;9.03;;
37855;SDS011;23694;43.274;26.924;2024-03-23T08:49:56;13.60;;;9.43;;
37855;SDS011;23694;43.274;26.924;2024-03-23T08:52:23;10.27;;;8.23;;
37855;SDS011;23694;43.274;26.924;2024-03-23T08:54:52;13.90;;;8.63;;
37855;SDS011;23694;43.274;26.924;2024-03-23T08:57:18;12.17;;;8.50;;
37855;SDS011;23694;43.274;26.924;2024-03-23T08:59:45;13.43;;;8.57;;
37855;SDS011;23694;43.274;26.924;2024-03-23T09:02:11;11.53;;;8.30;;
37855;SDS011;23694;43.274;26.924;2024-03-23T09:04:37;9.90;;;7.10;;
37855;SDS011;23694;43.274;26.924;2024-03-23T09:07:03;10.83;;;7.57;;
37855;SDS011;23694;43.274;26.924;2024-03-23T09:09:30;11.60;;;6.57;;
37855;SDS011;23694;43.274;26.924;2024-03-23T09:11:56;13.07;;;7.50;;
37855;SDS011;23694;43.274;26.924;2024-03-23T09:14:22;10.87;;;6.83;;
37855;SDS011;23694;43.274;26.924;2024-03-23T09:16:51;7.70;;;5.83;;
37855;SDS011;23694;43.274;26.924;2024-03-23T09:19:17;8.77;;;6.40;;
37855;SDS011;23694;43.274;26.924;2024-03-23T09:21:44;8.77;;;6.23;;
37855;SDS011;23694;43.274;26.924;2024-03-23T09:24:10;7.40;;;5.90;;
37855;SDS011;23694;43.274;26.924;2024-03-23T09:26:36;7.77;;;5.97;;
37855;SDS011;23694;43.274;26.924;2024-03-23T09:29:02;8.17;;;6.03;;
37855;SDS011;23694;43.274;26.924;2024-03-23T09:31:29;9.00;;;5.80;;
37855;SDS011;23694;43.274;26.924;2024-03-23T09:33:57;8.90;;;5.17;;
37855;SDS011;23694;43.274;26.924;2024-03-23T09:36:24;7.40;;;4.30;;
37855;SDS011;23694;43.274;26.924;2024-03-23T09:38:50;9.03;;;4.40;;
37855;SDS011;23694;43.274;26.924;2024-03-23T09:41:16;5.47;;;4.20;;
37855;SDS011;23694;43.274;26.924;2024-03-23T09:43:42;7.97;;;3.97;;
37855;SDS011;23694;43.274;26.924;2024-03-23T09:46:09;6.33;;;3.90;;
37855;SDS011;23694;43.274;26.924;2024-03-23T09:48:35;6.30;;;4.13;;
37855;SDS011;23694;43.274;26.924;2024-03-23T09:51:02;9.33;;;5.17;;
37855;SDS011;23694;43.274;26.924;2024-03-23T09:53:28;7.87;;;5.53;;
37855;SDS011;23694;43.274;26.924;2024-03-23T09:55:55;7.07;;;4.70;;
37855;SDS011;23694;43.274;26.924;2024-03-23T09:58:23;9.63;;;5.00;;
37855;SDS011;23694;43.274;26.924;2024-03-23T10:00:49;8.03;;;4.77;;
37855;SDS011;23694;43.274;26.924;2024-03-23T10:03:15;7.20;;;5.30;;
37855;SDS011;23694;43.274;26.924;2024-03-23T10:05:41;6.57;;;5.17;;
37855;SDS011;23694;43.274;26.924;2024-03-23T10:10:43;7.43;;;5.10;;
37855;SDS011;23694;43.274;26.924;2024-03-23T10:13:11;9.17;;;4.80;;
37855;SDS011;23694;43.274;26.924;2024-03-23T10:15:51;7.27;;;4.90;;
37855;SDS011;23694;43.274;26.924;2024-03-23T10:18:21;8.33;;;4.90;;
37855;SDS011;23694;43.274;26.924;2024-03-23T10:20:50;8.07;;;5.60;;
37855;SDS011;23694;43.274;26.924;2024-03-23T10:23:32;22.57;;;6.53;;
37855;SDS011;23694;43.274;26.924;2024-03-23T10:28:56;8.27;;;5.87;;
37855;SDS011;23694;43.274;26.924;2024-03-23T10:31:27;9.47;;;5.27;;
37855;SDS011;23694;43.274;26.924;2024-03-23T10:33:54;8.20;;;5.37;;
37855;SDS011;23694;43.274;26.924;2024-03-23T10:36:21;7.67;;;5.57;;
37855;SDS011;23694;43.274;26.924;2024-03-23T10:38:50;9.00;;;5.27;;
37855;SDS011;23694;43.274;26.924;2024-03-23T10:41:18;7.93;;;5.83;;
37855;SDS011;23694;43.274;26.924;2024-03-23T10:43:45;7.03;;;5.10;;
37855;SDS011;23694;43.274;26.924;2024-03-23T10:46:12;9.30;;;5.10;;
37855;SDS011;23694;43.274;26.924;2024-03-23T10:48:39;8.23;;;5.00;;
37855;SDS011;23694;43.274;26.924;2024-03-23T10:51:07;6.80;;;5.17;;
37855;SDS011;23694;43.274;26.924;2024-03-23T10:53:34;5.90;;;5.00;;
37855;SDS011;23694;43.274;26.924;2024-03-23T10:56:02;9.37;;;5.00;;
37855;SDS011;23694;43.274;26.924;2024-03-23T10:58:40;6.97;;;4.97;;
37855;SDS011;23694;43.274;26.924;2024-03-23T11:01:13;8.10;;;4.90;;
37855;SDS011;23694;43.274;26.924;2024-03-23T11:03:44;6.63;;;4.80;;
37855;SDS011;23694;43.274;26.924;2024-03-23T11:06:33;5.70;;;4.15;;
37855;SDS011;23694;43.274;26.924;2024-03-23T11:09:14;5.97;;;4.77;;
37855;SDS011;23694;43.274;26.924;2024-03-23T11:14:47;5.57;;;4.23;;
37855;SDS011;23694;43.274;26.924;2024-03-23T11:17:20;5.53;;;3.77;;
37855;SDS011;23694;43.274;26.924;2024-03-23T11:19:53;5.90;;;4.07;;
37855;SDS011;23694;43.274;26.924;2024-03-23T11:22:40;5.97;;;3.87;;
37855;SDS011;23694;43.274;26.924;2024-03-23T11:25:12;4.40;;;3.60;;
37855;SDS011;23694;43.274;26.924;2024-03-23T11:27:41;5.20;;;3.57;;
37855;SDS011;23694;43.274;26.924;2024-03-23T11:30:16;6.13;;;4.23;;
37855;SDS011;23694;43.274;26.924;2024-03-23T11:32:46;4.77;;;3.83;;
37855;SDS011;23694;43.274;26.924;2024-03-23T11:35:34;7.50;;;4.13;;
37855;SDS011;23694;43.274;26.924;2024-03-23T11:38:01;6.03;;;4.27;;
37855;SDS011;23694;43.274;26.924;2024-03-23T11:40:29;6.27;;;3.73;;
37855;SDS011;23694;43.274;26.924;2024-03-23T11:42:56;4.23;;;3.63;;
37855;SDS011;23694;43.274;26.924;2024-03-23T11:45:24;5.03;;;3.37;;
37855;SDS011;23694;43.274;26.924;2024-03-23T11:48:04;4.33;;;3.53;;
37855;SDS011;23694;43.274;26.924;2024-03-23T11:50:36;7.53;;;3.67;;
37855;SDS011;23694;43.274;26.924;2024-03-23T11:53:20;5.87;;;3.87;;
37855;SDS011;23694;43.274;26.924;2024-03-23T11:55:58;3.85;;;3.08;;
37855;SDS011;23694;43.274;26.924;2024-03-23T11:58:26;6.10;;;3.40;;
37855;SDS011;23694;43.274;26.924;2024-03-23T12:03:27;4.10;;;3.23;;
37855;SDS011;23694;43.274;26.924;2024-03-23T12:05:54;5.83;;;3.90;;
37855;SDS011;23694;43.274;26.924;2024-03-23T12:11:17;6.97;;;3.40;;
37855;SDS011;23694;43.274;26.924;2024-03-23T12:13:44;6.57;;;3.80;;
37855;SDS011;23694;43.274;26.924;2024-03-23T12:16:12;4.60;;;3.77;;
37855;SDS011;23694;43.274;26.924;2024-03-23T12:18:41;6.10;;;3.70;;
37855;SDS011;23694;43.274;26.924;2024-03-23T12:21:08;5.73;;;3.00;;
37855;SDS011;23694;43.274;26.924;2024-03-23T12:23:35;4.30;;;3.07;;
37855;SDS011;23694;43.274;26.924;2024-03-23T12:26:01;4.20;;;3.07;;
37855;SDS011;23694;43.274;26.924;2024-03-23T12:28:28;3.63;;;3.10;;
37855;SDS011;23694;43.274;26.924;2024-03-23T12:30:54;6.13;;;3.40;;
37855;SDS011;23694;43.274;26.924;2024-03-23T12:33:21;4.10;;;3.30;;
37855;SDS011;23694;43.274;26.924;2024-03-23T12:35:47;6.77;;;3.83;;
37855;SDS011;23694;43.274;26.924;2024-03-23T12:38:14;7.00;;;3.87;;
37855;SDS011;23694;43.274;26.924;2024-03-23T12:40:40;5.80;;;3.83;;
37855;SDS011;23694;43.274;26.924;2024-03-23T12:43:07;5.17;;;3.27;;
37855;SDS011;23694;43.274;26.924;2024-03-23T12:45:36;6.87;;;3.90;;
37855;SDS011;23694;43.274;26.924;2024-03-23T12:48:02;4.87;;;3.57;;
37855;SDS011;23694;43.274;26.924;2024-03-23T12:50:29;5.33;;;3.50;;
37855;SDS011;23694;43.274;26.924;2024-03-23T12:52:55;4.30;;;3.30;;
37855;SDS011;23694;43.274;26.924;2024-03-23T12:55:21;5.73;;;3.00;;
37855;SDS011;23694;43.274;26.924;2024-03-23T12:57:47;4.70;;;2.97;;
37855;SDS011;23694;43.274;26.924;2024-03-23T13:00:14;4.63;;;3.23;;
37855;SDS011;23694;43.274;26.924;2024-03-23T13:02:42;4.73;;;3.47;;
37855;SDS011;23694;43.274;26.924;2024-03-23T13:05:10;7.17;;;3.50;;
37855;SDS011;23694;43.274;26.924;2024-03-23T13:07:36;7.47;;;3.77;;
37855;SDS011;23694;43.274;26.924;2024-03-23T13:10:04;5.10;;;3.80;;
37855;SDS011;23694;43.274;26.924;2024-03-23T13:12:31;4.70;;;3.63;;
37855;SDS011;23694;43.274;26.924;2024-03-23T13:14:59;4.90;;;2.97;;
37855;SDS011;23694;43.274;26.924;2024-03-23T13:17:26;5.80;;;3.50;;
37855;SDS011;23694;43.274;26.924;2024-03-23T13:19:53;4.33;;;3.00;;
37855;SDS011;23694;43.274;26.924;2024-03-23T13:22:21;7.00;;;3.20;;
37855;SDS011;23694;43.274;26.924;2024-03-23T13:24:47;5.83;;;3.27;;
37855;SDS011;23694;43.274;26.924;2024-03-23T13:27:14;6.93;;;3.80;;
37855;SDS011;23694;43.274;26.924;2024-03-23T13:29:40;5.60;;;3.70;;
37855;SDS011;23694;43.274;26.924;2024-03-23T13:32:07;5.57;;;3.20;;
37855;SDS011;23694;43.274;26.924;2024-03-23T13:34:33;7.07;;;3.30;;
37855;SDS011;23694;43.274;26.924;2024-03-23T13:37:00;5.23;;;3.80;;
37855;SDS011;23694;43.274;26.924;2024-03-23T13:39:28;5.63;;;3.43;;
37855;SDS011;23694;43.274;26.924;2024-03-23T13:41:54;5.07;;;3.13;;
37855;SDS011;23694;43.274;26.924;2024-03-23T13:44:23;8.50;;;3.27;;
37855;SDS011;23694;43.274;26.924;2024-03-23T13:46:50;4.63;;;2.97;;
37855;SDS011;23694;43.274;26.924;2024-03-23T13:49:26;5.53;;;3.30;;
37855;SDS011;23694;43.274;26.924;2024-03-23T13:51:56;4.43;;;3.00;;
37855;SDS011;23694;43.274;26.924;2024-03-23T13:54:24;5.93;;;2.90;;
37855;SDS011;23694;43.274;26.924;2024-03-23T13:56:51;4.37;;;3.00;;
37855;SDS011;23694;43.274;26.924;2024-03-23T13:59:18;4.87;;;2.97;;
37855;SDS011;23694;43.274;26.924;2024-03-23T14:01:44;6.17;;;3.43;;
37855;SDS011;23694;43.274;26.924;2024-03-23T14:04:14;6.10;;;3.30;;
37855;SDS011;23694;43.274;26.924;2024-03-23T14:06:45;5.07;;;3.40;;
37855;SDS011;23694;43.274;26.924;2024-03-23T14:09:11;5.63;;;3.37;;
37855;SDS011;23694;43.274;26.924;2024-03-23T14:11:41;8.37;;;3.50;;
37855;SDS011;23694;43.274;26.924;2024-03-23T14:14:09;5.30;;;2.93;;
37855;SDS011;23694;43.274;26.924;2024-03-23T14:16:35;4.67;;;3.80;;
37855;SDS011;23694;43.274;26.924;2024-03-23T14:19:01;7.87;;;3.50;;
37855;SDS011;23694;43.274;26.924;2024-03-23T14:21:29;4.40;;;3.30;;
37855;SDS011;23694;43.274;26.924;2024-03-23T14:23:55;6.27;;;3.80;;
37855;SDS011;23694;43.274;26.924;2024-03-23T14:26:21;6.00;;;3.50;;
37855;SDS011;23694;43.274;26.924;2024-03-23T14:28:47;5.13;;;3.50;;
37855;SDS011;23694;43.274;26.924;2024-03-23T14:31:16;5.77;;;3.63;;
37855;SDS011;23694;43.274;26.924;2024-03-23T14:33:42;4.53;;;3.20;;
37855;SDS011;23694;43.274;26.924;2024-03-23T14:36:13;4.47;;;3.33;;
37855;SDS011;23694;43.274;26.924;2024-03-23T14:38:39;3.93;;;3.33;;
37855;SDS011;23694;43.274;26.924;2024-03-23T14:41:06;5.37;;;3.70;;
37855;SDS011;23694;43.274;26.924;2024-03-23T14:43:32;6.43;;;3.90;;
37855;SDS011;23694;43.274;26.924;2024-03-23T14:46:11;4.33;;;3.30;;
37855;SDS011;23694;43.274;26.924;2024-03-23T14:48:42;6.20;;;3.73;;
37855;SDS011;23694;43.274;26.924;2024-03-23T14:51:10;4.30;;;3.37;;
37855;SDS011;23694;43.274;26.924;2024-03-23T14:53:40;8.63;;;3.70;;
37855;SDS011;23694;43.274;26.924;2024-03-23T14:56:10;5.37;;;3.40;;
37855;SDS011;23694;43.274;26.924;2024-03-23T14:58:39;6.73;;;4.03;;
37855;SDS011;23694;43.274;26.924;2024-03-23T15:01:05;5.43;;;3.87;;
37855;SDS011;23694;43.274;26.924;2024-03-23T15:03:35;9.50;;;3.60;;
37855;SDS011;23694;43.274;26.924;2024-03-23T15:06:04;4.67;;;3.80;;
37855;SDS011;23694;43.274;26.924;2024-03-23T15:08:31;6.23;;;4.00;;
37855;SDS011;23694;43.274;26.924;2024-03-23T15:11:02;6.43;;;3.83;;
37855;SDS011;23694;43.274;26.924;2024-03-23T15:13:38;6.00;;;4.10;;
37855;SDS011;23694;43.274;26.924;2024-03-23T15:16:06;5.80;;;3.97;;
37855;SDS011;23694;43.274;26.924;2024-03-23T15:18:34;4.53;;;3.70;;
37855;SDS011;23694;43.274;26.924;2024-03-23T15:21:02;6.00;;;3.90;;
37855;SDS011;23694;43.274;26.924;2024-03-23T15:23:33;4.35;;;3.63;;
37855;SDS011;23694;43.274;26.924;2024-03-23T15:26:02;6.67;;;4.27;;
37855;SDS011;23694;43.274;26.924;2024-03-23T15:28:29;7.10;;;4.60;;
37855;SDS011;23694;43.274;26.924;2024-03-23T15:31:20;5.85;;;4.15;;